createdAt,value
2019-05-22T00:01:07.752Z,87.09
2019-05-22T00:03:52.124Z,87.14
2019-05-22T00:06:30.192Z,87.59
2019-05-22T00:09:02.206Z,87.81
2019-05-22T00:11:34.660Z,87.85
2019-05-22T00:14:07.282Z,87.29
2019-05-22T00:16:39.907Z,87.49
2019-05-22T00:19:11.541Z,87.16
2019-05-22T00:21:42.439Z,86.66
2019-05-22T00:24:14.977Z,86.92
2019-05-22T00:26:46.688Z,86.95
2019-05-22T00:29:18.839Z,86.87
2019-05-22T00:31:49.577Z,87.01
2019-05-22T00:34:20.810Z,87.04
2019-05-22T00:36:51.587Z,87.01
2019-05-22T00:39:22.096Z,87.55
2019-05-22T00:41:55.163Z,87.79
2019-05-22T00:44:27.879Z,88.19
2019-05-22T00:47:01.314Z,88.32
2019-05-22T00:49:33.927Z,88.53
2019-05-22T00:52:07.613Z,88.22
2019-05-22T00:54:44.203Z,87.40
2019-05-22T00:57:33.722Z,87.27
2019-05-22T01:00:19.322Z,86.87
2019-05-22T01:02:51.567Z,86.69
2019-05-22T01:05:24.852Z,86.64
2019-05-22T01:07:56.967Z,86.92
2019-05-22T01:10:30.531Z,86.81
2019-05-22T01:13:03.457Z,86.88
2019-05-22T01:15:35.770Z,86.95
2019-05-22T01:18:11.325Z,86.88
2019-05-22T01:20:43.002Z,87.19
2019-05-22T01:23:18.236Z,87.47
2019-05-22T01:25:48.822Z,87.43
2019-05-22T01:28:21.776Z,87.60
2019-05-22T01:30:55.318Z,87.32
2019-05-22T01:33:39.310Z,87.27
2019-05-22T01:36:22.030Z,87.14
2019-05-22T01:38:57.978Z,87.19
2019-05-22T01:41:33.192Z,87.51
2019-05-22T01:44:06.841Z,87.59
2019-05-22T01:46:41.873Z,87.82
2019-05-22T01:49:14.240Z,87.55
2019-05-22T01:51:46.540Z,87.49
2019-05-22T01:54:17.679Z,87.40
2019-05-22T01:56:48.820Z,87.21
2019-05-22T01:59:19.449Z,87.46
2019-05-22T02:01:51.753Z,87.62
2019-05-22T02:04:22.661Z,87.58
2019-05-22T02:06:55.486Z,87.54
2019-05-22T02:09:35.555Z,87.63
2019-05-22T02:12:20.148Z,87.49
2019-05-22T02:14:52.924Z,87.30
2019-05-22T02:17:33.903Z,87.36
2019-05-22T02:20:09.059Z,87.47
2019-05-22T02:22:42.325Z,87.52
2019-05-22T02:25:14.022Z,87.34
2019-05-22T02:27:46.278Z,87.28
2019-05-22T02:30:21.054Z,87.54
2019-05-22T02:32:52.614Z,87.89
2019-05-22T02:35:23.892Z,87.55
2019-05-22T02:37:54.795Z,87.53
2019-05-22T02:40:32.557Z,87.43
2019-05-22T02:43:03.676Z,87.43
2019-05-22T02:45:35.006Z,87.42
2019-05-22T02:48:07.792Z,87.16
2019-05-22T02:50:39.624Z,87.18
2019-05-22T02:53:13.775Z,87.08
2019-05-22T02:55:44.373Z,87.37
2019-05-22T02:58:18.357Z,87.60
2019-05-22T03:01:05.319Z,87.73
2019-05-22T03:03:37.888Z,88.04
2019-05-22T03:06:13.852Z,87.95
2019-05-22T03:09:18.904Z,88.43
2019-05-22T03:12:00.362Z,88.33
2019-05-22T03:14:33.132Z,88.26
2019-05-22T03:17:08.405Z,88.07
2019-05-22T03:19:43.940Z,87.57
2019-05-22T03:22:31.473Z,87.21
2019-05-22T03:25:09.206Z,87.04
2019-05-22T03:27:44.127Z,87.11
2019-05-22T03:30:24.285Z,87.17
2019-05-22T03:32:56.666Z,87.52
2019-05-22T03:35:30.362Z,87.68
2019-05-22T03:38:04.278Z,87.89
2019-05-22T03:40:38.044Z,87.84
2019-05-22T03:43:22.591Z,87.81
2019-05-22T03:45:54.425Z,87.77
2019-05-22T03:48:28.387Z,87.81
2019-05-22T03:51:11.171Z,87.93
2019-05-22T03:53:43.961Z,87.83
2019-05-22T03:56:16.524Z,87.55
2019-05-22T03:58:47.487Z,87.65
2019-05-22T04:01:19.554Z,87.50
2019-05-22T04:03:50.310Z,87.63
2019-05-22T04:06:22.026Z,87.53
2019-05-22T04:08:54.451Z,87.44
2019-05-22T04:11:32.050Z,87.76
2019-05-22T04:14:02.665Z,87.60
2019-05-22T04:16:33.069Z,87.47
2019-05-22T04:19:05.241Z,87.56
2019-05-22T04:21:36.167Z,87.81
2019-05-22T04:24:07.501Z,87.94
2019-05-22T04:26:39.628Z,88.14
2019-05-22T04:29:10.921Z,87.62
2019-05-22T04:31:58.305Z,87.76
2019-05-22T04:34:29.595Z,87.75
2019-05-22T04:37:00.672Z,87.47
2019-05-22T04:39:33.026Z,87.70
2019-05-22T04:42:04.171Z,87.72
2019-05-22T04:44:37.027Z,87.74
2019-05-22T04:47:08.065Z,87.56
2019-05-22T04:49:39.465Z,87.49
2019-05-22T04:52:11.216Z,87.30
2019-05-22T04:54:41.761Z,87.14
2019-05-22T04:57:13.272Z,87.01
2019-05-22T04:59:43.806Z,86.94
2019-05-22T05:02:14.330Z,87.43
2019-05-22T05:04:44.845Z,87.37
2019-05-22T05:07:15.850Z,87.30
2019-05-22T05:09:46.963Z,87.38
2019-05-22T05:12:18.860Z,87.01
2019-05-22T05:14:49.390Z,86.92
2019-05-22T05:17:19.985Z,86.88
2019-05-22T05:19:50.432Z,86.25
2019-05-22T05:22:33.394Z,85.68
2019-05-22T05:25:03.854Z,85.69
2019-05-22T05:27:34.631Z,85.60
2019-05-22T05:30:05.898Z,85.42
2019-05-22T05:32:38.108Z,84.43
2019-05-22T05:35:12.813Z,84.15
2019-05-22T05:37:44.397Z,83.02
2019-05-22T05:40:38.142Z,81.55
2019-05-22T05:43:15.325Z,79.96
2019-05-22T05:45:49.788Z,78.63
2019-05-22T05:48:24.308Z,77.91
2019-05-22T05:51:33.200Z,78.10
2019-05-22T05:54:11.179Z,76.74
2019-05-22T05:56:45.227Z,76.94
2019-05-22T05:59:17.853Z,75.63
2019-05-22T06:01:58.926Z,75.30
2019-05-22T06:04:39.831Z,72.37
2019-05-22T06:07:22.759Z,73.42
2019-05-22T06:10:53.769Z,72.11
2019-05-22T06:13:24.260Z,71.81
2019-05-22T06:16:56.061Z,73.43
2019-05-22T06:19:28.494Z,72.99
2019-05-22T06:22:00.370Z,72.87
2019-05-22T06:25:04.555Z,73.65
2019-05-22T06:27:44.700Z,73.25
2019-05-22T06:30:34.959Z,71.62
2019-05-22T06:33:43.815Z,72.07
2019-05-22T06:37:19.673Z,72.89
2019-05-22T06:53:36.185Z,74.17
2019-05-22T07:11:04.335Z,80.22
2019-05-22T07:21:56.508Z,73.85
2019-05-22T07:24:29.867Z,71.88
2019-05-22T07:27:28.662Z,68.67
2019-05-22T07:30:41.762Z,71.67
2019-05-22T07:33:13.302Z,73.69
2019-05-22T07:36:46.130Z,74.75
2019-05-22T07:40:35.159Z,71.29
2019-05-22T07:44:18.225Z,70.16
2019-05-22T07:47:28.691Z,68.30
2019-05-22T07:50:02.787Z,73.46
2019-05-22T07:52:59.227Z,73.41
2019-05-22T07:55:34.970Z,74.17
2019-05-22T08:01:46.914Z,71.44
2019-05-22T08:04:22.497Z,68.50
2019-05-22T08:07:22.683Z,66.25
2019-05-22T08:13:41.924Z,66.12
2019-05-22T08:16:16.831Z,65.22
2019-05-22T08:18:47.600Z,65.01
2019-05-22T08:21:18.405Z,65.14
2019-05-22T08:23:49.670Z,64.07
2019-05-22T08:26:23.824Z,64.08
2019-05-22T08:29:47.061Z,64.75
2019-05-22T08:32:20.566Z,66.54
2019-05-22T08:34:51.828Z,66.41
2019-05-22T08:37:31.457Z,69.41
2019-05-22T08:40:03.033Z,67.89
2019-05-22T08:42:38.046Z,68.60
2019-05-22T08:45:09.871Z,67.32
2019-05-22T08:47:40.763Z,66.89
2019-05-22T08:50:15.221Z,64.95
2019-05-22T08:52:48.155Z,65.11
2019-05-22T08:55:20.911Z,64.80
2019-05-22T08:58:03.695Z,65.22
2019-05-22T09:00:35.556Z,67.43
2019-05-22T09:03:06.297Z,67.39
2019-05-22T09:05:43.420Z,64.51
2019-05-22T09:08:15.035Z,62.73
2019-05-22T09:10:48.622Z,62.37
2019-05-22T09:13:56.218Z,61.49
2019-05-22T09:16:28.437Z,62.52
2019-05-22T09:19:00.456Z,63.16
2019-05-22T09:21:32.456Z,64.83
2019-05-22T09:24:05.160Z,63.29
2019-05-22T09:26:36.136Z,62.83
2019-05-22T09:29:07.015Z,65.78
2019-05-22T09:31:38.751Z,64.38
2019-05-22T09:34:09.842Z,60.75
2019-05-22T09:36:41.125Z,63.32
2019-05-22T09:39:12.130Z,61.10
2019-05-22T09:41:42.856Z,64.16
2019-05-22T09:44:16.728Z,63.87
2019-05-22T09:46:48.325Z,64.84
2019-05-22T09:49:23.803Z,66.78
2019-05-22T09:51:52.621Z,64.38
2019-05-22T09:54:23.071Z,65.15
2019-05-22T09:56:53.688Z,65.80
2019-05-22T09:59:24.543Z,67.24
2019-05-22T10:01:55.121Z,66.17
2019-05-22T10:04:25.579Z,63.25
2019-05-22T10:06:56.112Z,58.96
2019-05-22T10:09:29.173Z,58.94
2019-05-22T10:12:52.091Z,61.65
2019-05-22T10:18:17.118Z,58.83
2019-05-22T10:20:47.987Z,61.58
2019-05-22T10:23:23.882Z,59.78
2019-05-22T10:25:54.255Z,57.25
2019-05-22T10:28:24.778Z,56.11
2019-05-22T10:30:56.611Z,55.74
2019-05-22T10:33:27.870Z,55.53
2019-05-22T10:35:58.711Z,54.77
2019-05-22T10:38:30.769Z,53.39
2019-05-22T10:41:01.228Z,55.24
2019-05-22T10:43:34.744Z,54.79
2019-05-22T10:46:08.409Z,57.61
2019-05-22T10:48:40.321Z,55.61
2019-05-22T10:51:11.745Z,54.51
2019-05-22T10:53:43.091Z,53.24
2019-05-22T10:56:13.677Z,53.94
2019-05-22T10:58:44.535Z,54.27
2019-05-22T11:01:16.593Z,55.27
2019-05-22T11:03:47.651Z,54.65
2019-05-22T11:06:18.519Z,50.34
2019-05-22T11:08:49.233Z,47.39
2019-05-22T11:11:20.874Z,49.16
2019-05-22T11:14:01.147Z,45.59
2019-05-22T11:16:24.587Z,46.32
2019-05-22T11:18:56.238Z,46.31
2019-05-22T11:21:27.608Z,42.87
2019-05-22T11:23:58.154Z,44.22
2019-05-22T11:26:28.979Z,42.37
2019-05-22T11:28:59.917Z,41.53
2019-05-22T11:31:30.672Z,42.65
2019-05-22T11:34:01.385Z,39.92
2019-05-22T11:36:33.363Z,40.02
2019-05-22T11:39:05.687Z,39.35
2019-05-22T11:41:36.604Z,40.61
2019-05-22T11:44:07.178Z,43.33
2019-05-22T11:46:38.919Z,45.23
2019-05-22T11:49:10.121Z,45.28
2019-05-22T11:51:43.335Z,45.20
2019-05-22T11:54:14.356Z,46.98
2019-05-22T11:56:45.076Z,50.55
2019-05-22T11:59:16.043Z,53.47
2019-05-22T12:01:47.091Z,49.85
2019-05-22T12:04:17.768Z,47.59
2019-05-22T12:06:53.306Z,46.37
2019-05-22T12:09:23.238Z,47.12
2019-05-22T12:11:53.859Z,46.91
2019-05-22T12:14:24.632Z,50.63
2019-05-22T12:16:55.602Z,48.00
2019-05-22T12:19:27.267Z,47.58
2019-05-22T12:21:58.095Z,47.23
2019-05-22T12:24:36.820Z,45.89
2019-05-22T12:27:02.651Z,44.49
2019-05-22T12:29:33.269Z,46.77
2019-05-22T12:32:05.061Z,44.71
2019-05-22T12:34:35.983Z,45.16
2019-05-22T12:37:08.482Z,45.61
2019-05-22T12:39:41.530Z,47.68
2019-05-22T12:42:15.493Z,50.06
2019-05-22T12:44:46.427Z,48.07
2019-05-22T12:47:17.917Z,45.90
2019-05-22T12:49:49.769Z,45.58
2019-05-22T12:52:20.446Z,46.56
2019-05-22T12:54:53.069Z,47.63
2019-05-22T12:57:24.897Z,45.41
2019-05-22T12:59:56.013Z,48.22
2019-05-22T13:02:26.676Z,47.71
2019-05-22T13:04:59.664Z,44.67
2019-05-22T13:07:31.256Z,46.18
2019-05-22T13:10:02.191Z,44.06
2019-05-22T13:12:32.840Z,44.49
2019-05-22T13:15:09.905Z,45.23
2019-05-22T13:17:36.897Z,45.45
2019-05-22T13:20:10.307Z,45.85
2019-05-22T13:22:47.642Z,44.42
2019-05-22T13:25:20.888Z,43.82
2019-05-22T13:27:53.377Z,43.56
2019-05-22T13:30:28.739Z,43.95
2019-05-22T13:33:00.851Z,45.07
2019-05-22T13:35:31.786Z,45.30
2019-05-22T13:38:02.956Z,46.63
2019-05-22T13:40:34.716Z,44.82
2019-05-22T13:43:07.628Z,43.85
2019-05-22T13:45:39.037Z,42.43
2019-05-22T13:48:10.221Z,42.07
2019-05-22T13:50:41.627Z,38.62
2019-05-22T13:53:15.913Z,36.13
2019-05-22T13:55:48.139Z,35.44
2019-05-22T13:58:20.661Z,34.75
2019-05-22T14:00:51.922Z,33.39
2019-05-22T14:03:23.614Z,33.97
2019-05-22T14:05:55.412Z,35.15
2019-05-22T14:08:26.119Z,34.43
2019-05-22T14:10:56.608Z,31.78
2019-05-22T14:13:27.938Z,30.63
2019-05-22T14:15:58.541Z,31.58
2019-05-22T14:18:29.315Z,32.53
2019-05-22T14:21:00.133Z,31.11
2019-05-22T14:23:31.513Z,29.98
2019-05-22T14:26:02.268Z,30.91
2019-05-22T14:28:35.187Z,29.77
2019-05-22T14:31:05.984Z,27.86
2019-05-22T14:33:40.485Z,28.82
2019-05-22T14:36:11.686Z,29.37
2019-05-22T14:38:43.308Z,28.46
2019-05-22T14:41:14.403Z,29.32
2019-05-22T14:43:44.906Z,28.18
2019-05-22T14:46:16.029Z,27.28
2019-05-22T14:48:46.573Z,28.39
2019-05-22T14:51:20.467Z,28.70
2019-05-22T14:53:52.134Z,30.53
2019-05-22T14:56:23.775Z,30.48
2019-05-22T14:58:55.241Z,30.95
2019-05-22T15:01:26.559Z,33.06
2019-05-22T15:03:57.142Z,32.35
2019-05-22T15:06:28.222Z,31.51
2019-05-22T15:08:58.829Z,32.65
2019-05-22T15:11:31.626Z,33.96
2019-05-22T15:14:02.401Z,35.95
2019-05-22T15:16:33.861Z,36.48
2019-05-22T15:19:05.327Z,38.29
2019-05-22T15:21:36.190Z,40.26
2019-05-22T15:24:16.088Z,41.41
2019-05-22T15:26:47.223Z,40.44
2019-05-22T15:29:18.119Z,39.22
2019-05-22T15:31:49.756Z,40.01
2019-05-22T15:34:21.094Z,40.07
2019-05-22T15:36:51.637Z,39.93
2019-05-22T15:39:27.042Z,39.83
2019-05-22T15:41:59.453Z,40.50
2019-05-22T15:44:30.972Z,41.21
2019-05-22T15:47:01.508Z,40.76
2019-05-22T15:49:33.167Z,41.15
2019-05-22T15:52:07.396Z,42.60
2019-05-22T15:54:40.493Z,42.99
2019-05-22T15:57:12.898Z,44.53
2019-05-22T15:59:45.198Z,43.80
2019-05-22T16:02:21.746Z,43.66
2019-05-22T16:04:52.588Z,42.60
2019-05-22T16:07:24.982Z,44.18
2019-05-22T16:09:55.506Z,42.60
2019-05-22T16:12:28.697Z,42.17
2019-05-22T16:15:02.946Z,43.01
2019-05-22T16:17:35.870Z,43.75
2019-05-22T16:20:07.474Z,44.16
2019-05-22T16:22:38.884Z,44.72
2019-05-22T16:25:11.311Z,44.15
2019-05-22T16:27:44.065Z,43.86
2019-05-22T16:30:16.474Z,45.83
2019-05-22T16:32:47.963Z,46.10
2019-05-22T16:35:19.169Z,45.79
2019-05-22T16:37:51.149Z,45.96
2019-05-22T16:40:23.074Z,46.33
2019-05-22T16:42:54.912Z,46.04
2019-05-22T16:45:26.872Z,45.49
2019-05-22T16:48:01.635Z,45.82
2019-05-22T16:50:33.431Z,46.82
2019-05-22T16:53:10.778Z,45.74
2019-05-22T16:55:43.989Z,45.85
2019-05-22T16:58:15.637Z,45.75
2019-05-22T17:00:47.300Z,46.00
2019-05-22T17:03:19.754Z,45.67
2019-05-22T17:05:50.546Z,46.72
2019-05-22T17:08:21.968Z,47.45
2019-05-22T17:10:53.071Z,46.47
2019-05-22T17:13:24.175Z,46.55
2019-05-22T17:15:56.846Z,47.23
2019-05-22T17:18:45.922Z,46.81
2019-05-22T17:21:05.432Z,47.12
2019-05-22T17:23:37.106Z,47.50
2019-05-22T17:26:08.633Z,47.88
2019-05-22T17:28:39.182Z,48.00
2019-05-22T17:31:11.218Z,47.76
2019-05-22T17:33:42.459Z,47.11
2019-05-22T17:36:13.594Z,48.20
2019-05-22T17:38:44.421Z,47.81
2019-05-22T17:41:15.280Z,48.11
2019-05-22T17:43:47.407Z,49.03
2019-05-22T17:46:20.338Z,47.87
2019-05-22T17:48:51.210Z,48.40
2019-05-22T17:51:23.234Z,48.84
2019-05-22T17:53:54.961Z,48.38
2019-05-22T17:56:25.828Z,47.17
2019-05-22T17:58:56.539Z,46.47
2019-05-22T18:01:27.750Z,46.65
2019-05-22T18:03:58.487Z,47.03
2019-05-22T18:06:29.165Z,46.51
2019-05-22T18:08:59.700Z,46.59
2019-05-22T18:11:30.776Z,46.49
2019-05-22T18:14:05.924Z,46.28
2019-05-22T18:16:37.121Z,47.36
2019-05-22T18:19:08.708Z,45.37
2019-05-22T18:21:40.098Z,46.86
2019-05-22T18:24:10.679Z,47.36
2019-05-22T18:26:41.327Z,46.76
2019-05-22T18:29:11.825Z,47.68
2019-05-22T18:31:42.773Z,47.32
2019-05-22T18:34:13.250Z,48.16
2019-05-22T18:36:43.744Z,47.11
2019-05-22T18:39:15.965Z,49.48
2019-05-22T18:41:46.511Z,49.27
2019-05-22T18:44:17.121Z,48.74
2019-05-22T18:46:47.853Z,48.72
2019-05-22T18:49:18.626Z,48.65
2019-05-22T18:51:49.385Z,48.68
2019-05-22T18:54:19.813Z,49.48
2019-05-22T18:56:50.287Z,50.63
2019-05-22T18:59:20.969Z,52.44
2019-05-22T19:01:51.610Z,51.78
2019-05-22T19:04:22.716Z,51.56
2019-05-22T19:06:55.962Z,51.60
2019-05-22T19:09:26.132Z,52.54
2019-05-22T19:11:56.883Z,52.19
2019-05-22T19:14:29.951Z,52.96
2019-05-22T19:17:01.430Z,53.63
2019-05-22T19:19:32.155Z,54.12
2019-05-22T19:22:02.886Z,54.86
2019-05-22T19:24:33.509Z,56.11
2019-05-22T19:27:04.040Z,54.63
2019-05-22T19:29:34.568Z,54.40
2019-05-22T19:32:05.513Z,53.96
2019-05-22T19:34:36.062Z,53.69
2019-05-22T19:37:06.583Z,54.14
2019-05-22T19:39:38.331Z,54.54
2019-05-22T19:42:09.904Z,55.05
2019-05-22T19:44:40.423Z,55.38
2019-05-22T19:47:11.237Z,55.64
2019-05-22T19:49:43.865Z,55.43
2019-05-22T19:52:15.166Z,56.53
2019-05-22T19:54:45.705Z,56.98
2019-05-22T19:57:16.637Z,57.38
2019-05-22T19:59:48.225Z,57.78
2019-05-22T20:02:18.717Z,57.67
2019-05-22T20:04:49.956Z,57.21
2019-05-22T20:07:21.277Z,58.03
2019-05-22T20:09:53.631Z,58.43
2019-05-22T20:12:25.397Z,58.95
2019-05-22T20:14:56.318Z,58.88
2019-05-22T20:17:27.173Z,59.47
2019-05-22T20:19:57.619Z,59.54
2019-05-22T20:22:28.779Z,59.85
2019-05-22T20:24:59.448Z,60.33
2019-05-22T20:27:30.562Z,60.52
2019-05-22T20:30:01.475Z,60.41
2019-05-22T20:32:31.943Z,61.19
2019-05-22T20:35:03.018Z,61.36
2019-05-22T20:37:33.788Z,62.28
2019-05-22T20:40:04.949Z,61.85
2019-05-22T20:42:35.850Z,61.81
2019-05-22T20:45:08.333Z,62.34
2019-05-22T20:47:41.974Z,62.80
2019-05-22T20:50:15.764Z,63.36
2019-05-22T20:52:47.435Z,63.48
2019-05-22T20:55:19.373Z,63.90
2019-05-22T20:57:50.926Z,63.80
2019-05-22T21:00:23.295Z,64.03
2019-05-22T21:03:03.734Z,64.05
2019-05-22T21:05:34.241Z,64.33
2019-05-22T21:08:10.326Z,64.58
2019-05-22T21:10:48.210Z,64.99
2019-05-22T21:13:19.582Z,64.96
2019-05-22T21:15:52.266Z,65.31
2019-05-22T21:18:28.398Z,65.92
2019-05-22T21:21:00.299Z,66.35
2019-05-22T21:23:31.022Z,66.67
2019-05-22T21:26:02.174Z,66.90
2019-05-22T21:28:32.841Z,67.02
2019-05-22T21:31:04.105Z,67.18
2019-05-22T21:33:35.041Z,67.09
2019-05-22T21:36:09.863Z,66.90
2019-05-22T21:38:41.507Z,66.68
2019-05-22T21:41:12.232Z,66.99
2019-05-22T21:43:43.130Z,66.87
2019-05-22T21:46:15.072Z,67.24
2019-05-22T21:48:47.349Z,68.21
2019-05-22T21:51:22.040Z,69.36
2019-05-22T21:53:54.345Z,69.05
2019-05-22T21:56:26.165Z,67.84
2019-05-22T21:58:57.581Z,68.33
2019-05-22T22:01:45.228Z,68.44
2019-05-22T22:04:20.633Z,67.93
2019-05-22T22:06:55.211Z,67.57
2019-05-22T22:09:28.694Z,68.01
2019-05-22T22:12:00.809Z,69.31
2019-05-22T22:14:32.325Z,69.24
2019-05-22T22:17:05.372Z,69.72
2019-05-22T22:19:37.149Z,69.58
2019-05-22T22:22:11.654Z,69.98
2019-05-22T22:24:43.358Z,70.38
2019-05-22T22:27:16.586Z,70.29
2019-05-22T22:29:47.709Z,70.63
2019-05-22T22:32:19.792Z,70.82
2019-05-22T22:34:53.309Z,70.90
2019-05-22T22:37:24.841Z,70.89
2019-05-22T22:39:59.796Z,70.82
2019-05-22T22:42:31.780Z,71.30
2019-05-22T22:45:06.177Z,71.18
2019-05-22T22:47:41.097Z,71.32
2019-05-22T22:50:13.137Z,71.16
2019-05-22T22:52:45.921Z,71.08
2019-05-22T22:55:20.117Z,71.41
2019-05-22T22:57:52.324Z,71.56
2019-05-22T23:00:29.771Z,71.82
2019-05-22T23:03:01.683Z,72.32
2019-05-22T23:05:34.991Z,71.45
2019-05-22T23:08:05.958Z,71.40
2019-05-22T23:10:37.195Z,71.46
2019-05-22T23:13:08.718Z,71.17
2019-05-22T23:15:40.133Z,71.35
2019-05-22T23:18:14.604Z,71.83
2019-05-22T23:20:44.227Z,72.04
2019-05-22T23:23:12.254Z,71.96
2019-05-22T23:25:44.244Z,72.43
2019-05-22T23:28:25.174Z,72.91
2019-05-22T23:30:48.699Z,73.14
2019-05-22T23:33:21.122Z,73.36
2019-05-22T23:35:52.654Z,73.05
2019-05-22T23:38:23.155Z,73.22
2019-05-22T23:40:56.343Z,73.33
2019-05-22T23:43:29.167Z,73.56
2019-05-22T23:46:00.853Z,73.59
2019-05-22T23:48:33.375Z,73.49
2019-05-22T23:51:03.949Z,73.44
2019-05-22T23:53:36.798Z,73.47
2019-05-22T23:56:09.059Z,73.71
2019-05-22T23:58:52.325Z,73.33
